sensor_id;sensor_type;location;lat;lon;timestamp;noise_LAeq;noise_LA_min;noise_LA_max;noise_LA01;noise_LA95
66274;Laerm;58450;52.150;4.466;2023-04-15T00:00:44;39.99;36.30;44.72;;
66274;Laerm;58450;52.150;4.466;2023-04-15T00:03:11;39.91;35.46;45.62;;
66274;Laerm;58450;52.150;4.466;2023-04-15T00:05:39;39.84;35.97;44.56;;
66274;Laerm;58450;52.150;4.466;2023-04-15T00:08:06;39.01;35.20;44.61;;
66274;Laerm;58450;52.150;4.466;2023-04-15T00:10:34;39.72;35.25;54.52;;
66274;Laerm;58450;52.150;4.466;2023-04-15T00:13:01;39.35;35.33;44.87;;
66274;Laerm;58450;52.150;4.466;2023-04-15T00:15:29;39.37;35.39;47.79;;
66274;Laerm;58450;52.150;4.466;2023-04-15T00:17:58;39.24;34.44;45.20;;
66274;Laerm;58450;52.150;4.466;2023-04-15T00:20:25;39.35;35.32;47.63;;
66274;Laerm;58450;52.150;4.466;2023-04-15T00:22:53;39.89;35.30;46.35;;
66274;Laerm;58450;52.150;4.466;2023-04-15T00:25:20;40.03;35.85;52.04;;
66274;Laerm;58450;52.150;4.466;2023-04-15T00:27:48;39.66;35.80;44.07;;
66274;Laerm;58450;52.150;4.466;2023-04-15T00:30:16;40.19;36.47;45.02;;
66274;Laerm;58450;52.150;4.466;2023-04-15T00:32:44;39.24;35.11;44.57;;
66274;Laerm;58450;52.150;4.466;2023-04-15T00:35:13;40.58;36.01;47.34;;
66274;Laerm;58450;52.150;4.466;2023-04-15T00:37:40;40.29;35.40;57.03;;
66274;Laerm;58450;52.150;4.466;2023-04-15T00:40:12;39.73;35.43;49.44;;
66274;Laerm;58450;52.150;4.466;2023-04-15T00:42:39;38.93;35.19;43.85;;
66274;Laerm;58450;52.150;4.466;2023-04-15T00:45:08;39.06;35.05;45.19;;
66274;Laerm;58450;52.150;4.466;2023-04-15T00:47:38;40.23;35.69;55.33;;
66274;Laerm;58450;52.150;4.466;2023-04-15T00:50:08;39.93;35.90;56.69;;
66274;Laerm;58450;52.150;4.466;2023-04-15T00:52:37;39.32;35.63;46.48;;
66274;Laerm;58450;52.150;4.466;2023-04-15T00:55:07;39.79;35.77;49.01;;
66274;Laerm;58450;52.150;4.466;2023-04-15T00:57:35;39.04;34.98;47.77;;
66274;Laerm;58450;52.150;4.466;2023-04-15T01:00:05;38.81;34.81;45.47;;
66274;Laerm;58450;52.150;4.466;2023-04-15T01:02:35;39.41;35.79;45.01;;
66274;Laerm;58450;52.150;4.466;2023-04-15T01:05:03;39.64;35.09;61.00;;
66274;Laerm;58450;52.150;4.466;2023-04-15T01:07:31;39.51;34.52;48.11;;
66274;Laerm;58450;52.150;4.466;2023-04-15T01:10:01;38.55;33.69;46.37;;
66274;Laerm;58450;52.150;4.466;2023-04-15T01:12:31;40.33;35.63;49.73;;
66274;Laerm;58450;52.150;4.466;2023-04-15T01:15:01;38.76;35.26;45.07;;
66274;Laerm;58450;52.150;4.466;2023-04-15T01:17:28;38.32;34.25;45.38;;
66274;Laerm;58450;52.150;4.466;2023-04-15T01:19:56;38.88;35.22;46.44;;
66274;Laerm;58450;52.150;4.466;2023-04-15T01:22:25;39.46;35.18;45.97;;
66274;Laerm;58450;52.150;4.466;2023-04-15T01:25:00;39.07;35.38;49.01;;
66274;Laerm;58450;52.150;4.466;2023-04-15T01:27:34;39.33;35.45;48.83;;
66274;Laerm;58450;52.150;4.466;2023-04-15T01:30:07;38.07;34.41;42.59;;
66274;Laerm;58450;52.150;4.466;2023-04-15T01:32:34;38.57;34.04;53.71;;
66274;Laerm;58450;52.150;4.466;2023-04-15T01:35:02;39.01;34.45;46.12;;
66274;Laerm;58450;52.150;4.466;2023-04-15T01:37:30;39.38;35.43;45.17;;
66274;Laerm;58450;52.150;4.466;2023-04-15T01:39:58;38.83;35.12;44.44;;
66274;Laerm;58450;52.150;4.466;2023-04-15T01:42:26;39.73;35.21;50.54;;
66274;Laerm;58450;52.150;4.466;2023-04-15T01:44:55;38.99;35.38;47.29;;
66274;Laerm;58450;52.150;4.466;2023-04-15T01:47:22;38.48;34.69;43.20;;
66274;Laerm;58450;52.150;4.466;2023-04-15T01:49:50;38.37;34.25;47.57;;
66274;Laerm;58450;52.150;4.466;2023-04-15T01:52:17;37.99;34.15;42.61;;
66274;Laerm;58450;52.150;4.466;2023-04-15T01:54:45;38.91;35.05;43.56;;
66274;Laerm;58450;52.150;4.466;2023-04-15T01:57:16;39.60;35.51;50.14;;
66274;Laerm;58450;52.150;4.466;2023-04-15T01:59:43;38.75;34.63;43.26;;
66274;Laerm;58450;52.150;4.466;2023-04-15T02:02:12;38.55;35.22;44.18;;
66274;Laerm;58450;52.150;4.466;2023-04-15T02:04:40;38.81;35.23;45.32;;
66274;Laerm;58450;52.150;4.466;2023-04-15T02:07:08;38.88;35.01;45.91;;
66274;Laerm;58450;52.150;4.466;2023-04-15T02:09:35;37.76;33.76;42.74;;
66274;Laerm;58450;52.150;4.466;2023-04-15T02:12:05;39.08;35.49;44.12;;
66274;Laerm;58450;52.150;4.466;2023-04-15T02:14:32;40.50;35.59;49.49;;
66274;Laerm;58450;52.150;4.466;2023-04-15T02:17:00;39.95;36.15;46.04;;
66274;Laerm;58450;52.150;4.466;2023-04-15T02:19:34;39.37;35.35;49.01;;
66274;Laerm;58450;52.150;4.466;2023-04-15T02:22:01;39.18;35.44;44.69;;
66274;Laerm;58450;52.150;4.466;2023-04-15T02:24:29;39.58;35.62;45.72;;
66274;Laerm;58450;52.150;4.466;2023-04-15T02:26:57;38.76;35.67;45.32;;
66274;Laerm;58450;52.150;4.466;2023-04-15T02:29:24;39.33;35.67;46.63;;
66274;Laerm;58450;52.150;4.466;2023-04-15T02:31:52;39.30;35.43;43.97;;
66274;Laerm;58450;52.150;4.466;2023-04-15T02:34:19;39.90;36.30;45.14;;
66274;Laerm;58450;52.150;4.466;2023-04-15T02:36:48;42.61;36.64;55.87;;
66274;Laerm;58450;52.150;4.466;2023-04-15T02:39:20;43.01;35.63;62.36;;
66274;Laerm;58450;52.150;4.466;2023-04-15T02:41:48;40.04;36.30;47.94;;
66274;Laerm;58450;52.150;4.466;2023-04-15T02:44:17;39.63;35.49;49.54;;
66274;Laerm;58450;52.150;4.466;2023-04-15T02:46:45;39.92;35.88;47.19;;
66274;Laerm;58450;52.150;4.466;2023-04-15T02:49:16;40.20;35.69;45.14;;
66274;Laerm;58450;52.150;4.466;2023-04-15T02:51:43;41.88;36.95;58.73;;
66274;Laerm;58450;52.150;4.466;2023-04-15T02:54:15;40.88;36.25;47.15;;
66274;Laerm;58450;52.150;4.466;2023-04-15T02:56:43;40.99;37.20;47.09;;
66274;Laerm;58450;52.150;4.466;2023-04-15T02:59:11;41.12;36.10;47.36;;
66274;Laerm;58450;52.150;4.466;2023-04-15T03:01:39;39.74;36.25;43.88;;
66274;Laerm;58450;52.150;4.466;2023-04-15T03:04:06;40.32;36.08;48.72;;
66274;Laerm;58450;52.150;4.466;2023-04-15T03:06:34;40.31;36.02;50.10;;
66274;Laerm;58450;52.150;4.466;2023-04-15T03:09:02;41.60;36.87;51.59;;
66274;Laerm;58450;52.150;4.466;2023-04-15T03:11:31;40.36;35.51;48.45;;
66274;Laerm;58450;52.150;4.466;2023-04-15T03:13:59;40.46;36.30;54.15;;
66274;Laerm;58450;52.150;4.466;2023-04-15T03:16:26;40.41;36.88;46.02;;
66274;Laerm;58450;52.150;4.466;2023-04-15T03:18:54;40.21;35.17;45.46;;
66274;Laerm;58450;52.150;4.466;2023-04-15T03:21:21;40.57;36.37;48.02;;
66274;Laerm;58450;52.150;4.466;2023-04-15T03:23:49;42.28;36.94;59.68;;
66274;Laerm;58450;52.150;4.466;2023-04-15T03:26:25;41.99;36.46;52.71;;
66274;Laerm;58450;52.150;4.466;2023-04-15T03:28:55;40.95;36.06;46.18;;
66274;Laerm;58450;52.150;4.466;2023-04-15T03:31:23;42.44;37.31;52.87;;
66274;Laerm;58450;52.150;4.466;2023-04-15T03:33:50;40.83;36.68;51.14;;
66274;Laerm;58450;52.150;4.466;2023-04-15T03:36:18;41.21;36.55;52.86;;
66274;Laerm;58450;52.150;4.466;2023-04-15T03:38:45;42.29;36.86;55.33;;
66274;Laerm;58450;52.150;4.466;2023-04-15T03:41:14;45.19;37.82;66.71;;
66274;Laerm;58450;52.150;4.466;2023-04-15T03:43:41;42.55;37.35;58.25;;
66274;Laerm;58450;52.150;4.466;2023-04-15T03:46:10;42.69;38.00;55.66;;
66274;Laerm;58450;52.150;4.466;2023-04-15T03:48:38;41.03;36.18;50.18;;
66274;Laerm;58450;52.150;4.466;2023-04-15T03:51:05;42.08;36.93;60.50;;
66274;Laerm;58450;52.150;4.466;2023-04-15T03:53:33;40.59;36.27;52.12;;
66274;Laerm;58450;52.150;4.466;2023-04-15T03:56:00;44.44;36.20;65.41;;
66274;Laerm;58450;52.150;4.466;2023-04-15T03:58:28;41.87;37.07;58.48;;
66274;Laerm;58450;52.150;4.466;2023-04-15T04:00:56;43.91;38.20;55.67;;
66274;Laerm;58450;52.150;4.466;2023-04-15T04:03:24;44.95;38.88;57.93;;
66274;Laerm;58450;52.150;4.466;2023-04-15T04:05:52;43.52;37.50;55.04;;
66274;Laerm;58450;52.150;4.466;2023-04-15T04:08:20;45.31;39.36;60.33;;
66274;Laerm;58450;52.150;4.466;2023-04-15T04:10:47;43.66;38.16;63.53;;
66274;Laerm;58450;52.150;4.466;2023-04-15T04:13:15;43.10;38.63;54.70;;
66274;Laerm;58450;52.150;4.466;2023-04-15T04:15:42;42.77;38.15;53.64;;
66274;Laerm;58450;52.150;4.466;2023-04-15T04:18:10;43.72;38.72;59.07;;
66274;Laerm;58450;52.150;4.466;2023-04-15T04:20:39;45.11;38.04;59.82;;
66274;Laerm;58450;52.150;4.466;2023-04-15T04:23:06;45.96;39.34;62.71;;
66274;Laerm;58450;52.150;4.466;2023-04-15T04:25:33;49.95;38.16;71.35;;
66274;Laerm;58450;52.150;4.466;2023-04-15T04:28:01;46.65;38.11;65.38;;
66274;Laerm;58450;52.150;4.466;2023-04-15T04:30:29;46.40;38.35;65.69;;
66274;Laerm;58450;52.150;4.466;2023-04-15T04:32:56;49.53;37.78;68.57;;
66274;Laerm;58450;52.150;4.466;2023-04-15T04:35:24;47.27;38.34;68.95;;
66274;Laerm;58450;52.150;4.466;2023-04-15T04:37:53;49.23;37.61;69.44;;
66274;Laerm;58450;52.150;4.466;2023-04-15T04:40:20;43.22;37.96;54.81;;
66274;Laerm;58450;52.150;4.466;2023-04-15T04:42:48;45.36;38.53;71.27;;
66274;Laerm;58450;52.150;4.466;2023-04-15T04:45:15;42.16;38.26;53.63;;
66274;Laerm;58450;52.150;4.466;2023-04-15T04:47:43;42.25;37.98;51.32;;
66274;Laerm;58450;52.150;4.466;2023-04-15T04:50:11;45.54;37.54;66.40;;
66274;Laerm;58450;52.150;4.466;2023-04-15T04:52:39;56.23;38.15;75.67;;
66274;Laerm;58450;52.150;4.466;2023-04-15T04:55:08;53.14;38.58;67.78;;
66274;Laerm;58450;52.150;4.466;2023-04-15T04:57:36;58.10;39.26;71.08;;
66274;Laerm;58450;52.150;4.466;2023-04-15T05:00:06;45.16;38.21;64.49;;
66274;Laerm;58450;52.150;4.466;2023-04-15T05:02:34;45.88;38.64;65.65;;
66274;Laerm;58450;52.150;4.466;2023-04-15T05:05:02;50.26;38.81;72.20;;
66274;Laerm;58450;52.150;4.466;2023-04-15T05:07:30;46.08;38.24;58.94;;
66274;Laerm;58450;52.150;4.466;2023-04-15T05:09:57;42.80;38.59;49.93;;
66274;Laerm;58450;52.150;4.466;2023-04-15T05:12:26;42.93;38.50;58.91;;
66274;Laerm;58450;52.150;4.466;2023-04-15T05:14:54;43.21;37.74;56.83;;
66274;Laerm;58450;52.150;4.466;2023-04-15T05:17:21;47.98;38.95;69.35;;
66274;Laerm;58450;52.150;4.466;2023-04-15T05:19:49;44.05;38.73;59.65;;
66274;Laerm;58450;52.150;4.466;2023-04-15T05:22:16;45.05;38.53;59.98;;
66274;Laerm;58450;52.150;4.466;2023-04-15T05:24:44;44.95;37.73;59.31;;
66274;Laerm;58450;52.150;4.466;2023-04-15T05:27:11;44.10;38.99;63.13;;
66274;Laerm;58450;52.150;4.466;2023-04-15T05:29:40;44.94;39.56;56.56;;
66274;Laerm;58450;52.150;4.466;2023-04-15T05:32:08;45.02;39.38;58.39;;
66274;Laerm;58450;52.150;4.466;2023-04-15T05:34:35;44.18;39.73;54.36;;
66274;Laerm;58450;52.150;4.466;2023-04-15T05:37:02;55.68;39.14;70.47;;
66274;Laerm;58450;52.150;4.466;2023-04-15T05:39:30;45.20;39.29;54.92;;
66274;Laerm;58450;52.150;4.466;2023-04-15T05:41:58;47.12;39.06;62.41;;
66274;Laerm;58450;52.150;4.466;2023-04-15T05:44:26;48.44;39.18;66.30;;
66274;Laerm;58450;52.150;4.466;2023-04-15T05:46:54;45.71;38.89;56.75;;
66274;Laerm;58450;52.150;4.466;2023-04-15T05:49:22;47.10;39.40;62.85;;
66274;Laerm;58450;52.150;4.466;2023-04-15T05:51:50;46.78;40.12;62.30;;
66274;Laerm;58450;52.150;4.466;2023-04-15T05:54:18;47.31;39.66;59.61;;
66274;Laerm;58450;52.150;4.466;2023-04-15T05:56:47;46.95;39.47;65.92;;
66274;Laerm;58450;52.150;4.466;2023-04-15T05:59:14;46.66;40.03;60.77;;
66274;Laerm;58450;52.150;4.466;2023-04-15T06:01:42;44.48;39.63;51.43;;
66274;Laerm;58450;52.150;4.466;2023-04-15T06:04:11;46.90;39.53;66.81;;
66274;Laerm;58450;52.150;4.466;2023-04-15T06:06:39;49.59;38.94;65.53;;
66274;Laerm;58450;52.150;4.466;2023-04-15T06:09:07;49.35;40.21;67.11;;
66274;Laerm;58450;52.150;4.466;2023-04-15T06:11:34;49.33;39.71;66.84;;
66274;Laerm;58450;52.150;4.466;2023-04-15T06:14:02;48.97;40.14;61.91;;
66274;Laerm;58450;52.150;4.466;2023-04-15T06:16:29;46.58;38.87;60.57;;
66274;Laerm;58450;52.150;4.466;2023-04-15T06:18:57;45.32;38.80;59.77;;
66274;Laerm;58450;52.150;4.466;2023-04-15T06:21:26;46.66;39.11;65.11;;
66274;Laerm;58450;52.150;4.466;2023-04-15T06:23:54;46.45;40.20;60.12;;
66274;Laerm;58450;52.150;4.466;2023-04-15T06:26:21;44.77;39.40;54.17;;
66274;Laerm;58450;52.150;4.466;2023-04-15T06:28:49;45.81;39.07;64.47;;
66274;Laerm;58450;52.150;4.466;2023-04-15T06:31:17;44.49;38.92;56.09;;
66274;Laerm;58450;52.150;4.466;2023-04-15T06:33:44;44.90;38.22;56.12;;
66274;Laerm;58450;52.150;4.466;2023-04-15T06:36:12;45.61;38.45;57.89;;
66274;Laerm;58450;52.150;4.466;2023-04-15T06:38:40;46.44;39.36;61.31;;
66274;Laerm;58450;52.150;4.466;2023-04-15T06:41:08;48.54;38.56;68.92;;
66274;Laerm;58450;52.150;4.466;2023-04-15T06:43:36;45.28;38.63;61.45;;
66274;Laerm;58450;52.150;4.466;2023-04-15T06:46:04;48.39;40.51;67.83;;
66274;Laerm;58450;52.150;4.466;2023-04-15T06:48:31;51.85;39.67;66.44;;
66274;Laerm;58450;52.150;4.466;2023-04-15T06:50:58;46.24;39.47;59.46;;
66274;Laerm;58450;52.150;4.466;2023-04-15T06:53:26;45.15;38.46;53.20;;
66274;Laerm;58450;52.150;4.466;2023-04-15T06:55:55;44.62;38.82;60.91;;
66274;Laerm;58450;52.150;4.466;2023-04-15T06:58:23;44.56;38.45;55.25;;
66274;Laerm;58450;52.150;4.466;2023-04-15T07:00:51;42.56;37.12;56.30;;
66274;Laerm;58450;52.150;4.466;2023-04-15T07:03:19;48.18;38.16;72.10;;
66274;Laerm;58450;52.150;4.466;2023-04-15T07:05:46;45.94;37.99;61.35;;
66274;Laerm;58450;52.150;4.466;2023-04-15T07:08:14;43.40;38.03;52.90;;
66274;Laerm;58450;52.150;4.466;2023-04-15T07:10:41;44.65;38.50;57.10;;
66274;Laerm;58450;52.150;4.466;2023-04-15T07:13:10;45.18;38.91;59.21;;
66274;Laerm;58450;52.150;4.466;2023-04-15T07:15:38;48.46;39.77;65.06;;
66274;Laerm;58450;52.150;4.466;2023-04-15T07:18:05;43.78;38.82;54.81;;
66274;Laerm;58450;52.150;4.466;2023-04-15T07:20:33;44.91;38.54;59.08;;
66274;Laerm;58450;52.150;4.466;2023-04-15T07:23:01;45.53;37.67;62.43;;
66274;Laerm;58450;52.150;4.466;2023-04-15T07:25:28;45.19;38.75;61.25;;
66274;Laerm;58450;52.150;4.466;2023-04-15T07:27:56;46.45;39.40;60.21;;
66274;Laerm;58450;52.150;4.466;2023-04-15T07:30:25;56.46;40.71;73.48;;
66274;Laerm;58450;52.150;4.466;2023-04-15T07:32:53;48.26;39.06;65.63;;
66274;Laerm;58450;52.150;4.466;2023-04-15T07:35:21;46.38;39.17;67.46;;
66274;Laerm;58450;52.150;4.466;2023-04-15T07:37:48;47.77;39.06;64.35;;
66274;Laerm;58450;52.150;4.466;2023-04-15T07:40:16;46.12;38.58;65.87;;
66274;Laerm;58450;52.150;4.466;2023-04-15T07:42:45;47.08;39.07;62.54;;
66274;Laerm;58450;52.150;4.466;2023-04-15T07:45:14;45.38;38.34;63.04;;
66274;Laerm;58450;52.150;4.466;2023-04-15T07:47:43;47.54;41.14;67.96;;
66274;Laerm;58450;52.150;4.466;2023-04-15T07:50:11;47.15;39.98;67.97;;
66274;Laerm;58450;52.150;4.466;2023-04-15T07:52:38;48.08;40.52;63.76;;
66274;Laerm;58450;52.150;4.466;2023-04-15T07:55:07;49.85;40.45;63.99;;
66274;Laerm;58450;52.150;4.466;2023-04-15T07:57:35;50.00;42.25;60.21;;
66274;Laerm;58450;52.150;4.466;2023-04-15T08:00:04;50.33;38.81;64.00;;
66274;Laerm;58450;52.150;4.466;2023-04-15T08:02:33;46.41;38.07;62.45;;
66274;Laerm;58450;52.150;4.466;2023-04-15T08:05:03;56.55;39.14;74.58;;
66274;Laerm;58450;52.150;4.466;2023-04-15T08:07:32;46.34;39.00;59.49;;
66274;Laerm;58450;52.150;4.466;2023-04-15T08:10:00;45.88;38.49;60.38;;
66274;Laerm;58450;52.150;4.466;2023-04-15T08:12:27;46.72;39.68;58.22;;
66274;Laerm;58450;52.150;4.466;2023-04-15T08:14:55;48.81;38.94;60.58;;
66274;Laerm;58450;52.150;4.466;2023-04-15T08:17:22;50.66;43.19;63.87;;
66274;Laerm;58450;52.150;4.466;2023-04-15T08:19:50;50.36;42.33;60.09;;
66274;Laerm;58450;52.150;4.466;2023-04-15T08:22:20;50.34;41.52;63.30;;
66274;Laerm;58450;52.150;4.466;2023-04-15T08:24:47;50.30;41.35;69.42;;
66274;Laerm;58450;52.150;4.466;2023-04-15T08:27:15;45.83;39.90;65.23;;
66274;Laerm;58450;52.150;4.466;2023-04-15T08:29:42;46.50;40.10;63.10;;
66274;Laerm;58450;52.150;4.466;2023-04-15T08:32:10;46.74;41.08;57.78;;
66274;Laerm;58450;52.150;4.466;2023-04-15T08:34:38;49.89;42.26;63.50;;
66274;Laerm;58450;52.150;4.466;2023-04-15T08:37:05;47.62;39.54;60.95;;
66274;Laerm;58450;52.150;4.466;2023-04-15T08:39:34;45.98;39.85;54.28;;
66274;Laerm;58450;52.150;4.466;2023-04-15T08:42:06;47.32;40.80;57.14;;
66274;Laerm;58450;52.150;4.466;2023-04-15T08:44:39;46.12;39.36;55.61;;
66274;Laerm;58450;52.150;4.466;2023-04-15T08:47:08;57.01;37.46;77.30;;
66274;Laerm;58450;52.150;4.466;2023-04-15T08:49:39;48.03;39.51;60.22;;
66274;Laerm;58450;52.150;4.466;2023-04-15T08:52:08;51.94;39.46;72.06;;
66274;Laerm;58450;52.150;4.466;2023-04-15T08:54:37;48.84;38.39;71.00;;
66274;Laerm;58450;52.150;4.466;2023-04-15T08:57:05;47.21;37.88;59.13;;
66274;Laerm;58450;52.150;4.466;2023-04-15T08:59:33;49.18;37.39;71.73;;
66274;Laerm;58450;52.150;4.466;2023-04-15T09:02:03;47.32;40.48;59.71;;
66274;Laerm;58450;52.150;4.466;2023-04-15T09:04:31;46.93;40.02;60.27;;
66274;Laerm;58450;52.150;4.466;2023-04-15T09:06:59;48.29;40.95;63.69;;
66274;Laerm;58450;52.150;4.466;2023-04-15T09:09:27;45.55;39.25;57.19;;
66274;Laerm;58450;52.150;4.466;2023-04-15T09:11:56;47.27;40.34;58.86;;
66274;Laerm;58450;52.150;4.466;2023-04-15T09:14:23;47.67;39.55;68.38;;
66274;Laerm;58450;52.150;4.466;2023-04-15T09:16:59;47.14;41.25;62.50;;
66274;Laerm;58450;52.150;4.466;2023-04-15T09:19:27;45.16;38.05;59.15;;
66274;Laerm;58450;52.150;4.466;2023-04-15T09:21:57;46.73;39.44;62.79;;
66274;Laerm;58450;52.150;4.466;2023-04-15T09:24:33;47.49;40.75;59.69;;
66274;Laerm;58450;52.150;4.466;2023-04-15T09:27:04;45.35;38.80;58.34;;
66274;Laerm;58450;52.150;4.466;2023-04-15T09:29:32;46.78;39.36;56.60;;
66274;Laerm;58450;52.150;4.466;2023-04-15T09:32:12;45.54;39.85;55.54;;
66274;Laerm;58450;52.150;4.466;2023-04-15T09:34:39;45.78;39.61;60.83;;
66274;Laerm;58450;52.150;4.466;2023-04-15T09:37:07;47.47;39.54;61.68;;
66274;Laerm;58450;52.150;4.466;2023-04-15T09:39:47;44.30;39.11;50.63;;
66274;Laerm;58450;52.150;4.466;2023-04-15T09:42:17;49.55;41.58;66.12;;
66274;Laerm;58450;52.150;4.466;2023-04-15T09:44:49;46.68;39.44;64.61;;
66274;Laerm;58450;52.150;4.466;2023-04-15T09:47:27;54.64;40.01;68.22;;
66274;Laerm;58450;52.150;4.466;2023-04-15T09:49:55;49.26;41.57;66.65;;
66274;Laerm;58450;52.150;4.466;2023-04-15T09:52:23;48.71;40.33;67.28;;
66274;Laerm;58450;52.150;4.466;2023-04-15T09:54:53;46.36;40.04;57.81;;
66274;Laerm;58450;52.150;4.466;2023-04-15T09:57:23;48.13;40.85;63.16;;
66274;Laerm;58450;52.150;4.466;2023-04-15T09:59:51;48.03;40.35;58.94;;
66274;Laerm;58450;52.150;4.466;2023-04-15T10:02:19;49.98;43.92;58.24;;
66274;Laerm;58450;52.150;4.466;2023-04-15T10:04:47;47.52;42.00;58.74;;
66274;Laerm;58450;52.150;4.466;2023-04-15T10:07:16;49.49;41.12;60.18;;
66274;Laerm;58450;52.150;4.466;2023-04-15T10:09:46;49.76;43.44;58.34;;
66274;Laerm;58450;52.150;4.466;2023-04-15T10:12:16;49.17;42.19;57.92;;
66274;Laerm;58450;52.150;4.466;2023-04-15T10:14:52;52.17;43.81;59.02;;
66274;Laerm;58450;52.150;4.466;2023-04-15T10:17:22;49.61;42.90;62.78;;
66274;Laerm;58450;52.150;4.466;2023-04-15T10:19:54;46.81;40.95;59.93;;
66274;Laerm;58450;52.150;4.466;2023-04-15T10:22:23;50.47;42.80;62.14;;
66274;Laerm;58450;52.150;4.466;2023-04-15T10:24:54;48.25;40.65;66.35;;
66274;Laerm;58450;52.150;4.466;2023-04-15T10:27:22;45.94;40.33;53.18;;
66274;Laerm;58450;52.150;4.466;2023-04-15T10:29:52;48.05;40.63;57.89;;
66274;Laerm;58450;52.150;4.466;2023-04-15T10:32:23;47.36;41.05;55.39;;
66274;Laerm;58450;52.150;4.466;2023-04-15T10:34:53;46.54;40.29;58.77;;
66274;Laerm;58450;52.150;4.466;2023-04-15T10:37:21;46.17;40.36;60.52;;
66274;Laerm;58450;52.150;4.466;2023-04-15T10:39:49;46.38;39.40;57.26;;
66274;Laerm;58450;52.150;4.466;2023-04-15T10:42:18;51.13;40.83;62.29;;
66274;Laerm;58450;52.150;4.466;2023-04-15T10:44:49;49.23;42.05;60.92;;
66274;Laerm;58450;52.150;4.466;2023-04-15T10:47:20;51.94;41.13;74.15;;
66274;Laerm;58450;52.150;4.466;2023-04-15T10:49:49;49.36;40.12;71.51;;
66274;Laerm;58450;52.150;4.466;2023-04-15T10:52:22;52.77;45.59;62.22;;
66274;Laerm;58450;52.150;4.466;2023-04-15T10:55:01;46.82;41.34;56.02;;
66274;Laerm;58450;52.150;4.466;2023-04-15T10:57:34;47.41;40.43;56.94;;
66274;Laerm;58450;52.150;4.466;2023-04-15T11:00:11;47.70;39.83;65.50;;
66274;Laerm;58450;52.150;4.466;2023-04-15T11:02:45;46.95;40.15;61.28;;
66274;Laerm;58450;52.150;4.466;2023-04-15T11:05:14;51.81;43.23;64.95;;
66274;Laerm;58450;52.150;4.466;2023-04-15T11:07:51;55.01;42.33;70.82;;
66274;Laerm;58450;52.150;4.466;2023-04-15T11:10:51;55.35;40.81;71.41;;
66274;Laerm;58450;52.150;4.466;2023-04-15T11:13:26;50.12;39.59;66.82;;
66274;Laerm;58450;52.150;4.466;2023-04-15T11:16:00;54.96;41.25;76.00;;
66274;Laerm;58450;52.150;4.466;2023-04-15T11:18:32;50.55;43.46;69.27;;
66274;Laerm;58450;52.150;4.466;2023-04-15T11:21:03;50.79;41.09;70.32;;
66274;Laerm;58450;52.150;4.466;2023-04-15T11:23:34;49.41;40.13;68.10;;
66274;Laerm;58450;52.150;4.466;2023-04-15T11:26:04;49.64;41.84;68.35;;
66274;Laerm;58450;52.150;4.466;2023-04-15T11:28:35;49.01;39.89;65.75;;
66274;Laerm;58450;52.150;4.466;2023-04-15T11:31:09;50.75;41.09;68.79;;
66274;Laerm;58450;52.150;4.466;2023-04-15T11:33:45;50.30;41.85;71.44;;
66274;Laerm;58450;52.150;4.466;2023-04-15T11:36:13;57.17;46.13;73.91;;
66274;Laerm;58450;52.150;4.466;2023-04-15T11:38:46;54.23;44.13;71.08;;
66274;Laerm;58450;52.150;4.466;2023-04-15T11:41:13;51.04;43.95;71.40;;
66274;Laerm;58450;52.150;4.466;2023-04-15T11:43:41;48.99;41.73;67.06;;
66274;Laerm;58450;52.150;4.466;2023-04-15T11:46:09;50.74;43.38;73.37;;
66274;Laerm;58450;52.150;4.466;2023-04-15T11:48:42;50.27;42.13;71.76;;
66274;Laerm;58450;52.150;4.466;2023-04-15T11:51:11;48.37;42.32;60.67;;
66274;Laerm;58450;52.150;4.466;2023-04-15T11:53:41;47.02;42.49;52.16;;
66274;Laerm;58450;52.150;4.466;2023-04-15T11:56:11;48.27;41.95;56.29;;
66274;Laerm;58450;52.150;4.466;2023-04-15T11:58:42;52.95;43.18;70.93;;
66274;Laerm;58450;52.150;4.466;2023-04-15T12:01:12;50.69;45.33;68.03;;
66274;Laerm;58450;52.150;4.466;2023-04-15T12:03:42;50.74;44.06;64.57;;
66274;Laerm;58450;52.150;4.466;2023-04-15T12:06:15;48.77;43.04;69.87;;
66274;Laerm;58450;52.150;4.466;2023-04-15T12:08:51;53.55;45.30;63.38;;
66274;Laerm;58450;52.150;4.466;2023-04-15T12:11:20;58.47;46.70;77.65;;
66274;Laerm;58450;52.150;4.466;2023-04-15T12:13:55;53.57;46.43;67.53;;
66274;Laerm;58450;52.150;4.466;2023-04-15T12:16:24;53.70;46.67;64.58;;
66274;Laerm;58450;52.150;4.466;2023-04-15T12:18:55;55.52;45.31;72.27;;
66274;Laerm;58450;52.150;4.466;2023-04-15T12:21:25;54.53;45.18;74.98;;
66274;Laerm;58450;52.150;4.466;2023-04-15T12:23:55;54.00;44.60;70.99;;
66274;Laerm;58450;52.150;4.466;2023-04-15T12:26:28;52.34;45.62;62.51;;
66274;Laerm;58450;52.150;4.466;2023-04-15T12:29:00;51.66;45.07;63.49;;
66274;Laerm;58450;52.150;4.466;2023-04-15T12:31:28;51.87;44.36;64.35;;
66274;Laerm;58450;52.150;4.466;2023-04-15T12:33:59;52.04;46.45;59.46;;
66274;Laerm;58450;52.150;4.466;2023-04-15T12:36:28;53.49;45.86;65.22;;
66274;Laerm;58450;52.150;4.466;2023-04-15T12:38:58;51.84;46.72;59.61;;
66274;Laerm;58450;52.150;4.466;2023-04-15T12:41:25;54.54;48.52;66.10;;
66274;Laerm;58450;52.150;4.466;2023-04-15T12:43:53;53.51;46.91;65.26;;
66274;Laerm;58450;52.150;4.466;2023-04-15T12:46:21;53.00;47.78;61.99;;
66274;Laerm;58450;52.150;4.466;2023-04-15T12:48:49;51.54;45.21;66.24;;
66274;Laerm;58450;52.150;4.466;2023-04-15T12:51:19;52.38;45.19;65.36;;
66274;Laerm;58450;52.150;4.466;2023-04-15T12:53:47;50.63;45.45;62.78;;
66274;Laerm;58450;52.150;4.466;2023-04-15T12:56:15;51.04;45.19;69.09;;
66274;Laerm;58450;52.150;4.466;2023-04-15T12:58:43;50.98;44.54;63.91;;
66274;Laerm;58450;52.150;4.466;2023-04-15T13:01:11;52.14;44.25;70.68;;
66274;Laerm;58450;52.150;4.466;2023-04-15T13:03:38;52.01;45.24;70.34;;
66274;Laerm;58450;52.150;4.466;2023-04-15T13:06:06;50.86;43.68;63.71;;
66274;Laerm;58450;52.150;4.466;2023-04-15T13:08:35;53.41;47.77;61.05;;
66274;Laerm;58450;52.150;4.466;2023-04-15T13:11:02;51.64;45.19;64.17;;
66274;Laerm;58450;52.150;4.466;2023-04-15T13:13:31;51.12;45.14;64.64;;
66274;Laerm;58450;52.150;4.466;2023-04-15T13:15:58;51.36;45.69;62.23;;
66274;Laerm;58450;52.150;4.466;2023-04-15T13:18:26;50.78;44.26;63.59;;
66274;Laerm;58450;52.150;4.466;2023-04-15T13:20:54;52.40;45.85;63.28;;
66274;Laerm;58450;52.150;4.466;2023-04-15T13:23:22;50.19;44.29;67.12;;
66274;Laerm;58450;52.150;4.466;2023-04-15T13:25:51;49.78;43.62;64.81;;
66274;Laerm;58450;52.150;4.466;2023-04-15T13:28:18;51.17;43.94;68.85;;
66274;Laerm;58450;52.150;4.466;2023-04-15T13:30:46;56.02;42.93;75.68;;
66274;Laerm;58450;52.150;4.466;2023-04-15T13:33:15;48.74;41.55;65.51;;
66274;Laerm;58450;52.150;4.466;2023-04-15T13:35:43;52.62;43.74;72.63;;
66274;Laerm;58450;52.150;4.466;2023-04-15T13:38:11;50.18;43.67;74.13;;
66274;Laerm;58450;52.150;4.466;2023-04-15T13:40:38;50.08;45.54;65.67;;
66274;Laerm;58450;52.150;4.466;2023-04-15T13:43:07;49.40;43.12;58.62;;
66274;Laerm;58450;52.150;4.466;2023-04-15T13:45:34;48.25;41.72;65.48;;
66274;Laerm;58450;52.150;4.466;2023-04-15T13:48:02;48.98;44.06;59.82;;
66274;Laerm;58450;52.150;4.466;2023-04-15T13:50:30;49.35;44.35;56.60;;
66274;Laerm;58450;52.150;4.466;2023-04-15T13:52:57;53.26;46.01;66.63;;